This is the latest recevied weather packets stored in our database for station/object MS0SIA-10. If no packets are shown the sender has not sent any weather packets the latest 1 day(s).
| Time | Temp. | Humidity | Pressure | Rain* | Wind** | Luminosity | Snow |
|---|---|---|---|---|---|---|---|
| 1777926943 | 13.89° C | 100% | 1041.6 hPa | - | - | - | - |
| 1777926043 | 13.89° C | 100% | 1041.4 hPa | - | - | - | - |
| 1777925147 | 13.89° C | 100% | 1041.6 hPa | - | - | - | - |
| 1777924243 | 13.89° C | 100% | 1041.5 hPa | - | - | - | - |
| 1777923343 | 13.89° C | 100% | 1041.5 hPa | - | - | - | - |
| 1777922442 | 13.89° C | 100% | 1041.3 hPa | - | - | - | - |
| 1777921542 | 13.89° C | 100% | 1041.3 hPa | - | - | - | - |
| 1777920642 | 13.89° C | 100% | 1041.1 hPa | - | - | - | - |
| 1777919742 | 13.89° C | 100% | 1040.9 hPa | - | - | - | - |
| 1777918842 | 13.89° C | 100% | 1040.6 hPa | - | - | - | - |
| 1777918510 | 13.89° C | 100% | 1040.4 hPa | - | - | - | - |
| 1777917046 | 14.44° C | 100% | 1040.4 hPa | - | - | - | - |
| 1777916146 | 14.44° C | 100% | 1040.2 hPa | - | - | - | - |
| 1777915246 | 13.89° C | 100% | 1040.4 hPa | - | - | - | - |
| 1777914436 | 13.89° C | 100% | 1040.4 hPa | - | - | - | - |
| 1777914346 | 13.89° C | 100% | 1040.4 hPa | - | - | - | - |
| 1777913442 | 13.89° C | 100% | 1040.3 hPa | - | - | - | - |
| 1777912541 | 13.33° C | 100% | 1040.4 hPa | - | - | - | - |
| 1777911646 | 13.33° C | 100% | 1040.5 hPa | - | - | - | - |
| 1777910741 | 13.33° C | 100% | 1040.5 hPa | - | - | - | - |
| 1777909843 | 12.78° C | 100% | 1040.5 hPa | - | - | - | - |
| 1777909695 | 13.33° C | 100% | 1040.2 hPa | - | - | - | - |
| 1777909061 | 13.33° C | 100% | 1040.2 hPa | - | - | - | - |
| 1777908161 | 13.33° C | 100% | 1040.2 hPa | - | - | - | - |
| 1777907261 | 12.22° C | 100% | 1040.7 hPa | - | - | - | - |
* Rain since midnight (hover to see other rain measurements)
** Current wind speed in m/s (hover to see current wind gust speed)